Time;durP1;ratioP1;P1;durP2;ratioP2;P2;SDS_P1;SDS_P2;PMS_P1;PMS_P2;Temp;Humidity;BMP_temperature;BMP_pressure;BME280_temperature;BME280_humidity;BME280_pressure;Samples;Min_cycle;Max_cycle;Signal;HPM_P1;HPM_P2
2022/03/20 00:01:02;;;;;;;40.70;17.70;;;4.50;99.70;;;;;;5042421;28;21162;-61
2022/03/20 00:03:30;;;;;;;42.40;18.57;;;4.30;99.70;;;;;;5037154;28;20465;-62
2022/03/20 00:05:57;;;;;;;42.40;18.70;;;4.20;99.70;;;;;;5036096;28;20602;-66
2022/03/20 00:08:24;;;;;;;44.23;17.60;;;4.10;99.70;;;;;;5036493;28;20449;-63
2022/03/20 00:11:01;;;;;;;49.23;18.77;;;4.00;99.70;;;;;;5036823;28;20474;-66
2022/03/20 00:13:30;;;;;;;39.40;18.30;;;4.00;99.70;;;;;;5036797;28;20634;-64
2022/03/20 00:15:59;;;;;;;38.60;17.37;;;3.90;99.70;;;;;;5035731;28;20531;-63
2022/03/20 00:18:26;;;;;;;35.43;17.17;;;3.90;99.70;;;;;;5036053;28;20555;-66
2022/03/20 00:20:55;;;;;;;42.57;18.13;;;3.90;99.70;;;;;;5037704;28;20531;-63
2022/03/20 00:23:23;;;;;;;40.13;18.20;;;3.90;99.70;;;;;;5035979;28;20472;-63
2022/03/20 00:25:51;;;;;;;43.10;18.50;;;4.10;99.70;;;;;;5035859;28;20975;-66
2022/03/20 00:28:20;;;;;;;40.13;19.37;;;4.00;99.70;;;;;;5035214;28;20471;-63
2022/03/20 00:30:47;;;;;;;39.50;17.57;;;4.10;99.70;;;;;;5035422;28;20963;-64
2022/03/20 00:33:15;;;;;;;41.60;17.70;;;4.10;99.70;;;;;;5035201;28;20488;-63
2022/03/20 00:35:42;;;;;;;43.30;18.73;;;4.10;99.70;;;;;;5036564;28;20448;-61
2022/03/20 00:38:09;;;;;;;42.90;18.07;;;3.90;99.70;;;;;;5036435;28;20873;-63
2022/03/20 00:40:36;;;;;;;40.07;18.50;;;4.00;99.70;;;;;;5037059;28;20503;-63
2022/03/20 00:43:04;;;;;;;34.40;16.67;;;4.10;99.70;;;;;;5037268;28;20456;-63
2022/03/20 00:45:31;;;;;;;40.20;18.33;;;4.00;99.70;;;;;;5036752;28;20521;-61
2022/03/20 00:47:58;;;;;;;42.50;18.30;;;4.00;99.70;;;;;;5037663;28;20834;-60
2022/03/20 00:50:26;;;;;;;43.23;18.50;;;3.90;99.70;;;;;;5037578;28;20448;-62
2022/03/20 00:52:53;;;;;;;42.63;18.67;;;3.90;99.70;;;;;;5044810;28;20449;-62
2022/03/20 00:55:20;;;;;;;42.07;18.27;;;4.00;99.70;;;;;;5050992;28;20519;-63
2022/03/20 00:57:47;;;;;;;41.97;17.80;;;3.90;99.70;;;;;;5057345;28;20447;-63
2022/03/20 01:00:15;;;;;;;39.07;17.87;;;3.90;99.70;;;;;;5057727;28;20447;-64
2022/03/20 01:02:44;;;;;;;42.80;18.57;;;3.90;99.70;;;;;;5058096;28;20443;-64
2022/03/20 01:05:11;;;;;;;40.67;17.70;;;4.00;99.70;;;;;;5057722;28;20817;-63
2022/03/20 01:07:40;;;;;;;43.70;18.77;;;4.00;99.70;;;;;;5041813;28;21023;-60
2022/03/20 01:10:08;;;;;;;44.27;18.70;;;4.00;99.70;;;;;;5037125;28;20445;-66
2022/03/20 01:12:38;;;;;;;40.80;18.07;;;4.00;99.70;;;;;;5037213;28;20467;-66
2022/03/20 01:15:06;;;;;;;42.13;19.03;;;3.90;99.70;;;;;;5037368;28;20489;-63
2022/03/20 01:17:33;;;;;;;41.13;17.27;;;4.00;99.70;;;;;;5037060;28;20499;-65
2022/03/20 01:20:00;;;;;;;43.83;18.53;;;3.90;99.70;;;;;;5034839;28;20465;-64
2022/03/20 01:22:27;;;;;;;42.00;17.60;;;3.90;99.70;;;;;;5038228;28;20451;-63
2022/03/20 01:24:55;;;;;;;41.80;17.00;;;4.00;99.70;;;;;;5036791;28;20591;-66
2022/03/20 01:27:21;;;;;;;38.87;17.20;;;4.00;99.70;;;;;;5037074;28;20475;-62
2022/03/20 01:29:48;;;;;;;38.63;16.47;;;4.10;99.70;;;;;;5037749;28;20994;-65
2022/03/20 01:32:16;;;;;;;35.57;17.00;;;4.00;99.70;;;;;;5037169;28;20445;-64
2022/03/20 01:34:43;;;;;;;38.17;16.60;;;4.00;99.70;;;;;;5037224;28;20493;-64
2022/03/20 01:37:10;;;;;;;39.67;16.80;;;4.00;99.70;;;;;;5036962;28;20449;-64
2022/03/20 01:39:36;;;;;;;38.77;16.90;;;4.00;99.70;;;;;;5036936;28;20877;-66
2022/03/20 01:42:06;;;;;;;39.80;16.93;;;4.00;99.70;;;;;;5047949;28;20448;-64
2022/03/20 01:44:34;;;;;;;36.47;16.03;;;4.00;99.70;;;;;;5051110;28;20484;-63
2022/03/20 01:47:02;;;;;;;44.33;17.57;;;4.00;99.70;;;;;;5032905;28;20448;-66
2022/03/20 01:49:28;;;;;;;37.73;16.70;;;4.00;99.70;;;;;;5040150;28;20506;-63
2022/03/20 01:54:42;;;;;;;38.40;17.67;;;4.00;99.70;;;;;;5051966;28;20525;-65
2022/03/20 01:57:12;;;;;;;37.30;16.33;;;4.10;99.70;;;;;;5045054;28;20528;-64
2022/03/20 01:59:39;;;;;;;38.50;17.10;;;4.10;99.70;;;;;;5041062;28;20482;-67
2022/03/20 02:02:06;;;;;;;40.93;17.50;;;4.20;99.70;;;;;;5039330;28;20453;-64
2022/03/20 02:04:35;;;;;;;38.50;16.07;;;4.20;99.70;;;;;;5038288;28;20464;-64
2022/03/20 02:07:03;;;;;;;40.73;16.70;;;4.30;99.70;;;;;;5039208;28;20539;-64
2022/03/20 02:09:29;;;;;;;37.93;15.80;;;4.60;99.70;;;;;;5047828;28;20454;-63
2022/03/20 02:11:56;;;;;;;35.57;16.07;;;4.70;99.70;;;;;;5049133;28;20441;-65
2022/03/20 02:14:24;;;;;;;40.33;17.57;;;4.90;99.70;;;;;;5038537;28;20491;-66
2022/03/20 02:16:51;;;;;;;37.17;16.60;;;4.80;99.70;;;;;;5034206;28;20890;-66
2022/03/20 02:19:18;;;;;;;38.67;17.37;;;4.70;99.70;;;;;;5034836;28;20960;-67
2022/03/20 02:21:47;;;;;;;37.37;15.80;;;4.60;99.70;;;;;;5034382;28;21022;-67
2022/03/20 02:24:33;;;;;;;36.37;16.10;;;4.70;99.70;;;;;;5040079;28;20472;-65
2022/03/20 02:27:09;;;;;;;34.80;15.17;;;4.70;99.70;;;;;;5047622;28;20448;-66
2022/03/20 02:29:36;;;;;;;41.90;17.37;;;4.80;99.70;;;;;;5037818;28;20534;-67
2022/03/20 02:32:04;;;;;;;37.47;16.70;;;4.80;99.70;;;;;;5049950;28;20455;-67
2022/03/20 02:34:32;;;;;;;34.80;15.80;;;4.80;99.70;;;;;;5047868;28;20601;-67
2022/03/20 02:37:00;;;;;;;38.93;17.00;;;4.80;99.70;;;;;;5048150;28;20520;-67
2022/03/20 02:39:27;;;;;;;39.40;16.97;;;4.70;99.70;;;;;;5049767;28;20458;-66
2022/03/20 02:41:55;;;;;;;38.10;16.93;;;4.70;99.70;;;;;;5037950;28;20471;-67
2022/03/20 02:44:49;;;;;;;44.50;17.83;;;4.90;99.70;;;;;;5033311;28;20522;-67
2022/03/20 02:47:19;;;;;;;38.53;16.60;;;4.90;99.70;;;;;;5033626;28;20452;-66
2022/03/20 02:49:47;;;;;;;38.63;17.13;;;4.90;99.70;;;;;;5022956;28;20857;-66
2022/03/20 02:52:15;;;;;;;42.07;17.90;;;4.90;99.70;;;;;;5035991;28;20440;-66
2022/03/20 02:54:42;;;;;;;38.70;16.77;;;4.90;99.70;;;;;;5039595;28;20487;-67
2022/03/20 02:57:09;;;;;;;39.83;16.67;;;4.90;99.70;;;;;;5033008;28;20452;-66
2022/03/20 02:59:36;;;;;;;40.93;16.77;;;4.90;99.70;;;;;;5033578;28;20958;-67
2022/03/20 03:02:03;;;;;;;38.53;17.40;;;4.90;99.70;;;;;;5032759;28;20448;-67
2022/03/20 03:04:29;;;;;;;38.90;16.77;;;4.90;99.70;;;;;;5033621;28;20516;-67
2022/03/20 03:07:02;;;;;;;41.10;17.47;;;4.90;99.70;;;;;;5033145;28;20508;-67
2022/03/20 03:12:14;;;;;;;38.93;16.37;;;4.90;99.70;;;;;;5041527;28;20875;-68
2022/03/20 03:17:28;;;;;;;39.97;16.80;;;5.00;99.70;;;;;;5047894;28;20446;-66
2022/03/20 03:19:55;;;;;;;42.10;17.80;;;5.00;99.70;;;;;;5029853;28;20462;-65
2022/03/20 03:22:23;;;;;;;40.70;17.60;;;5.00;99.70;;;;;;5032453;28;20460;-65
2022/03/20 03:24:51;;;;;;;37.43;17.00;;;5.00;99.70;;;;;;5032452;28;20504;-65
2022/03/20 03:27:18;;;;;;;39.87;17.60;;;5.10;99.70;;;;;;5032159;28;20459;-66
2022/03/20 03:29:45;;;;;;;38.23;17.40;;;5.10;99.70;;;;;;5033092;28;20948;-66
2022/03/20 03:32:11;;;;;;;42.17;18.27;;;5.10;99.70;;;;;;5032298;28;20451;-67
2022/03/20 03:37:22;;;;;;;37.50;17.07;;;5.30;99.70;;;;;;5047822;28;20570;-66
2022/03/20 03:39:50;;;;;;;43.13;18.00;;;5.40;99.70;;;;;;5048171;28;20457;-65
2022/03/20 03:42:17;;;;;;;46.00;18.13;;;5.30;99.70;;;;;;5041768;28;20847;-65
2022/03/20 03:44:44;;;;;;;40.60;17.00;;;5.30;99.70;;;;;;5043275;28;20871;-66
2022/03/20 03:47:11;;;;;;;39.70;16.87;;;5.30;99.70;;;;;;5031569;28;20967;-65
2022/03/20 03:49:37;;;;;;;41.53;18.13;;;5.40;99.70;;;;;;5033092;28;20510;-65
2022/03/20 03:52:05;;;;;;;42.10;17.10;;;5.50;99.70;;;;;;5033049;28;20449;-65
2022/03/20 03:54:32;;;;;;;41.77;17.40;;;5.50;99.70;;;;;;5031995;28;20515;-65
2022/03/20 03:57:00;;;;;;;45.20;19.37;;;5.40;99.70;;;;;;5032633;28;20899;-66
2022/03/20 03:59:27;;;;;;;42.90;18.53;;;5.30;99.70;;;;;;5032908;28;20452;-65
2022/03/20 04:01:56;;;;;;;41.53;17.40;;;5.40;99.70;;;;;;5032009;28;20456;-65
2022/03/20 04:04:22;;;;;;;43.63;18.70;;;5.30;99.70;;;;;;5033033;28;20571;-65
2022/03/20 04:06:49;;;;;;;41.50;17.67;;;5.20;99.70;;;;;;5031550;28;20448;-66
2022/03/20 04:09:16;;;;;;;43.47;18.07;;;5.40;99.70;;;;;;5032853;28;20445;-66
2022/03/20 04:11:42;;;;;;;41.00;17.70;;;5.40;99.70;;;;;;5032888;28;20440;-65
2022/03/20 04:14:10;;;;;;;49.20;18.57;;;5.30;99.70;;;;;;5039557;28;20472;-67
2022/03/20 04:16:37;;;;;;;42.50;18.13;;;5.20;99.70;;;;;;5046995;28;20552;-65
2022/03/20 04:19:04;;;;;;;48.70;19.13;;;5.10;99.70;;;;;;5047211;28;20451;-65
2022/03/20 04:21:31;;;;;;;38.63;17.30;;;5.10;99.70;;;;;;5021690;28;20946;-65
2022/03/20 04:23:58;;;;;;;44.37;19.07;;;5.00;99.70;;;;;;5032585;28;20475;-65
2022/03/20 04:26:25;;;;;;;43.30;18.93;;;5.00;99.70;;;;;;5033494;28;20838;-67
2022/03/20 04:28:53;;;;;;;43.50;17.87;;;5.20;99.70;;;;;;5041537;28;20451;-65
2022/03/20 04:31:22;;;;;;;42.53;18.93;;;5.20;99.70;;;;;;5050974;28;20526;-65
2022/03/20 04:33:51;;;;;;;45.83;19.37;;;5.20;99.70;;;;;;5021143;28;20459;-66
2022/03/20 04:36:21;;;;;;;44.77;19.23;;;5.20;99.70;;;;;;5053847;28;20443;-65
2022/03/20 04:38:49;;;;;;;42.60;17.70;;;5.20;99.70;;;;;;5033627;28;20449;-65
2022/03/20 04:41:17;;;;;;;46.90;20.10;;;5.20;99.70;;;;;;5034014;28;20463;-68
2022/03/20 04:43:44;;;;;;;43.97;18.40;;;5.10;99.70;;;;;;5053460;28;20499;-65
2022/03/20 04:46:11;;;;;;;44.40;19.27;;;5.10;99.70;;;;;;5053708;28;20432;-67
2022/03/20 04:59:36;;;;;;;42.27;18.27;;;5.40;99.70;;;;;;5034075;28;20471;-67
2022/03/20 05:02:02;;;;;;;44.53;18.67;;;5.40;99.70;;;;;;5052603;28;20466;-67
2022/03/20 05:04:31;;;;;;;45.60;20.00;;;5.40;99.70;;;;;;5040579;28;20464;-67
2022/03/20 05:06:57;;;;;;;45.30;19.03;;;5.40;99.70;;;;;;5033403;28;20449;-67
2022/03/20 05:14:57;;;;;;;52.33;19.43;;;5.50;99.70;;;;;;5041853;28;20908;-67
2022/03/20 05:17:23;;;;;;;47.53;19.03;;;5.40;99.70;;;;;;5033468;28;20449;-68
2022/03/20 05:19:51;;;;;;;48.00;19.80;;;5.30;99.70;;;;;;5033775;28;20453;-68
2022/03/20 05:22:18;;;;;;;50.57;19.73;;;5.30;99.70;;;;;;5026510;28;20472;-66
2022/03/20 05:24:45;;;;;;;50.70;20.37;;;5.30;99.70;;;;;;5032982;28;20530;-66
2022/03/20 05:27:12;;;;;;;44.93;18.77;;;5.30;99.70;;;;;;5033168;28;20453;-66
2022/03/20 05:29:40;;;;;;;47.73;19.63;;;5.40;99.70;;;;;;5033351;28;20445;-67
2022/03/20 05:32:09;;;;;;;46.73;19.70;;;5.30;99.70;;;;;;5051729;28;20823;-66
2022/03/20 05:34:36;;;;;;;45.27;18.67;;;5.40;99.70;;;;;;5053257;28;20487;-66
2022/03/20 05:37:07;;;;;;;42.63;19.13;;;5.40;99.70;;;;;;5051918;28;20887;-67
2022/03/20 05:39:34;;;;;;;46.63;20.07;;;5.40;99.70;;;;;;5052772;28;20448;-67
2022/03/20 05:42:01;;;;;;;46.67;19.87;;;5.40;99.70;;;;;;5034299;28;20944;-66
2022/03/20 05:44:28;;;;;;;43.87;19.30;;;5.50;99.70;;;;;;5033205;28;20468;-67
2022/03/20 05:46:57;;;;;;;45.23;18.67;;;5.50;99.70;;;;;;5052243;28;20950;-67
2022/03/20 05:49:25;;;;;;;44.93;18.87;;;5.60;99.70;;;;;;5052890;28;20481;-66
2022/03/20 05:51:54;;;;;;;47.30;19.40;;;5.50;99.70;;;;;;5042963;28;20448;-67
2022/03/20 05:54:23;;;;;;;48.60;19.50;;;5.60;99.70;;;;;;5032704;28;20510;-66
2022/03/20 05:59:36;;;;;;;50.50;20.60;;;5.60;99.70;;;;;;5052780;28;20443;-67
2022/03/20 06:02:03;;;;;;;49.13;20.43;;;5.60;99.70;;;;;;5052724;28;20506;-66
2022/03/20 06:04:31;;;;;;;47.20;20.37;;;5.60;99.70;;;;;;5052298;28;20986;-66
2022/03/20 06:06:58;;;;;;;45.23;19.43;;;5.60;99.70;;;;;;5024567;28;20445;-66
2022/03/20 06:09:26;;;;;;;46.83;20.23;;;5.60;99.70;;;;;;5032521;28;20547;-66
2022/03/20 06:11:53;;;;;;;46.40;19.03;;;5.70;99.70;;;;;;5032364;28;20447;-67
2022/03/20 06:14:21;;;;;;;45.83;19.70;;;5.70;99.70;;;;;;5032307;28;20465;-66
2022/03/20 06:16:48;;;;;;;47.57;20.23;;;5.80;99.70;;;;;;5045956;28;20499;-68
2022/03/20 06:19:16;;;;;;;45.37;19.80;;;5.80;99.70;;;;;;5032178;28;20440;-67
2022/03/20 06:21:44;;;;;;;44.40;18.83;;;5.70;99.70;;;;;;5032280;28;20990;-66
2022/03/20 06:24:11;;;;;;;47.60;20.63;;;5.90;99.70;;;;;;5032111;28;20483;-66
2022/03/20 06:26:39;;;;;;;44.83;20.53;;;6.00;99.70;;;;;;5048295;28;20774;-66
2022/03/20 06:29:06;;;;;;;46.20;19.03;;;6.00;99.70;;;;;;5051921;28;20447;-67
2022/03/20 06:31:33;;;;;;;56.33;19.87;;;5.90;99.70;;;;;;5043134;28;20453;-67
2022/03/20 06:34:01;;;;;;;45.13;19.93;;;5.90;99.70;;;;;;5020028;28;20516;-66
2022/03/20 06:36:28;;;;;;;50.03;20.97;;;5.80;99.70;;;;;;5027580;28;20563;-67
2022/03/20 06:38:55;;;;;;;50.80;21.17;;;5.70;99.70;;;;;;5031690;28;20449;-64
2022/03/20 06:41:22;;;;;;;46.50;19.90;;;5.70;99.70;;;;;;5031856;28;20475;-67
2022/03/20 06:43:51;;;;;;;46.53;20.67;;;5.80;99.70;;;;;;5041085;28;20506;-68
2022/03/20 06:46:17;;;;;;;47.67;20.77;;;5.80;99.70;;;;;;5029815;28;20453;-66
2022/03/20 06:48:44;;;;;;;48.53;19.90;;;6.00;99.70;;;;;;5031387;28;20510;-67
2022/03/20 06:51:11;;;;;;;53.67;21.13;;;6.00;99.70;;;;;;5031600;28;20837;-67
2022/03/20 06:53:37;;;;;;;45.03;20.00;;;6.20;99.70;;;;;;5031983;28;20473;-67
2022/03/20 06:56:05;;;;;;;45.33;19.93;;;6.30;99.70;;;;;;5047756;28;20483;-67
2022/03/20 06:58:31;;;;;;;51.03;19.77;;;6.40;99.70;;;;;;5051443;28;20451;-67
2022/03/20 07:00:59;;;;;;;49.40;19.27;;;6.50;99.70;;;;;;5051629;28;20839;-67
2022/03/20 07:03:26;;;;;;;47.80;20.17;;;6.60;99.70;;;;;;5046171;28;20464;-68
2022/03/20 07:05:53;;;;;;;51.00;21.60;;;6.50;99.70;;;;;;5023538;28;20449;-67
2022/03/20 07:08:21;;;;;;;46.53;20.80;;;6.60;99.70;;;;;;5026799;28;20452;-66
2022/03/20 07:10:48;;;;;;;51.47;20.77;;;6.60;99.70;;;;;;5012031;28;20505;-66
2022/03/20 07:16:01;;;;;;;47.23;19.87;;;7.40;99.70;;;;;;5051076;28;20474;-67
2022/03/20 07:18:28;;;;;;;44.00;19.87;;;7.80;99.70;;;;;;5051368;28;20455;-67
2022/03/20 07:20:55;;;;;;;51.13;20.53;;;8.50;99.70;;;;;;5050959;28;20862;-66
2022/03/20 07:23:23;;;;;;;46.67;20.70;;;9.00;97.80;;;;;;5026410;28;20583;-67
2022/03/20 07:31:19;;;;;;;44.07;20.53;;;10.00;94.10;;;;;;5051328;28;20430;-67
2022/03/20 07:33:48;;;;;;;46.87;20.67;;;10.10;93.30;;;;;;5050586;28;20470;-64
2022/03/20 07:36:15;;;;;;;44.27;19.80;;;10.40;93.70;;;;;;5050784;28;20479;-65
2022/03/20 07:38:42;;;;;;;46.30;21.00;;;11.00;93.10;;;;;;5051017;28;20519;-65
2022/03/20 07:41:09;;;;;;;41.70;20.67;;;11.10;90.60;;;;;;5045288;28;20536;-67
2022/03/20 07:43:36;;;;;;;41.90;20.83;;;11.00;89.90;;;;;;5041970;28;20464;-67
2022/03/20 07:46:02;;;;;;;41.43;20.30;;;11.30;90.40;;;;;;5047502;28;20443;-67
2022/03/20 07:48:30;;;;;;;42.30;19.07;;;11.50;90.50;;;;;;5050869;28;20795;-64
2022/03/20 07:50:59;;;;;;;43.57;21.20;;;11.40;91.60;;;;;;5051017;28;20447;-67
2022/03/20 07:53:26;;;;;;;42.60;20.90;;;11.10;93.00;;;;;;5035485;28;20837;-66
2022/03/20 07:55:53;;;;;;;42.40;20.90;;;11.00;93.00;;;;;;5044359;28;20553;-65
2022/03/20 07:58:21;;;;;;;41.43;19.60;;;10.70;93.20;;;;;;5038734;28;20502;-66
2022/03/20 08:00:48;;;;;;;40.50;19.10;;;10.80;94.40;;;;;;5043037;28;20447;-65
2022/03/20 08:03:15;;;;;;;44.20;20.60;;;11.00;94.00;;;;;;5042813;28;20469;-66
2022/03/20 08:05:43;;;;;;;43.10;21.73;;;11.40;90.50;;;;;;5041171;28;20444;-66
2022/03/20 08:08:14;;;;;;;47.60;21.30;;;11.90;90.50;;;;;;5043570;28;20443;-66
2022/03/20 08:10:41;;;;;;;46.03;21.23;;;12.40;87.80;;;;;;5037379;28;20519;-66
2022/03/20 08:13:09;;;;;;;43.67;20.33;;;12.50;87.10;;;;;;5042476;28;20527;-65
2022/03/20 08:15:36;;;;;;;42.47;21.60;;;12.50;87.80;;;;;;5047904;28;21006;-65
2022/03/20 08:18:04;;;;;;;44.37;21.97;;;12.90;88.30;;;;;;5035440;28;20448;-63
2022/03/20 08:20:31;;;;;;;42.50;20.70;;;12.90;88.70;;;;;;5034322;28;20506;-67
2022/03/20 08:23:00;;;;;;;41.93;21.40;;;13.50;88.40;;;;;;5030966;28;20506;-66
2022/03/20 08:25:27;;;;;;;42.93;21.77;;;13.70;85.20;;;;;;5032742;28;21006;-66
2022/03/20 08:27:54;;;;;;;45.13;21.57;;;13.50;86.00;;;;;;5035327;28;20462;-66
2022/03/20 08:30:22;;;;;;;44.37;21.07;;;13.30;85.00;;;;;;5039108;28;20441;-67
2022/03/20 08:32:49;;;;;;;43.67;21.67;;;12.70;86.50;;;;;;5041554;28;20450;-66
2022/03/20 08:35:17;;;;;;;39.33;20.00;;;12.70;86.30;;;;;;5036145;28;20459;-67
2022/03/20 08:37:45;;;;;;;39.17;19.70;;;12.80;87.50;;;;;;5030068;28;20571;-66
2022/03/20 08:40:15;;;;;;;42.03;21.10;;;13.10;87.20;;;;;;5025866;28;20447;-66
2022/03/20 08:42:44;;;;;;;46.90;21.80;;;13.40;87.10;;;;;;5028955;28;20835;-66
2022/03/20 08:45:12;;;;;;;44.87;21.60;;;13.40;86.90;;;;;;5029215;28;20461;-65
2022/03/20 08:47:39;;;;;;;41.00;20.53;;;13.10;85.10;;;;;;5027185;28;20452;-66
2022/03/20 08:50:07;;;;;;;46.73;22.17;;;13.00;86.90;;;;;;5025707;28;20444;-66
2022/03/20 08:52:34;;;;;;;46.77;21.37;;;13.30;84.70;;;;;;5028658;28;20432;-65
2022/03/20 08:55:01;;;;;;;42.07;20.47;;;13.20;85.70;;;;;;5024837;28;20484;-66
2022/03/20 08:57:31;;;;;;;43.97;21.50;;;13.20;86.50;;;;;;5031164;28;20523;-66
2022/03/20 08:59:58;;;;;;;43.00;20.87;;;13.40;87.20;;;;;;5028337;28;20449;-66
2022/03/20 09:02:24;;;;;;;45.57;20.80;;;13.70;85.90;;;;;;5027168;28;20471;-66
2022/03/20 09:04:51;;;;;;;45.70;21.80;;;14.20;84.40;;;;;;5031350;28;21034;-66
2022/03/20 09:07:18;;;;;;;48.57;22.00;;;14.40;84.00;;;;;;5030166;28;20491;-66
2022/03/20 09:09:44;;;;;;;42.47;20.20;;;14.10;82.70;;;;;;5029406;28;20464;-66
2022/03/20 09:12:11;;;;;;;46.13;22.43;;;14.20;82.40;;;;;;5030945;28;20452;-66
2022/03/20 09:14:39;;;;;;;43.97;21.10;;;14.00;85.00;;;;;;5031325;28;20563;-66
2022/03/20 09:19:54;;;;;;;44.53;21.33;;;13.70;83.30;;;;;;5033788;28;20506;-66
2022/03/20 09:22:21;;;;;;;46.90;22.13;;;14.10;85.70;;;;;;5030952;28;20461;-67
2022/03/20 09:24:47;;;;;;;45.17;20.40;;;14.40;83.60;;;;;;5025219;28;20578;-66
2022/03/20 09:27:14;;;;;;;41.80;21.00;;;14.80;82.00;;;;;;5030704;28;20833;-67
2022/03/20 09:29:42;;;;;;;44.23;22.33;;;15.00;82.40;;;;;;5028938;28;20843;-67
2022/03/20 09:32:10;;;;;;;45.87;21.10;;;15.00;80.30;;;;;;5032700;28;20452;-65
2022/03/20 09:34:37;;;;;;;46.37;21.37;;;15.00;81.00;;;;;;5034716;28;20568;-65
2022/03/20 09:37:05;;;;;;;44.40;20.90;;;15.50;80.60;;;;;;5031892;28;20481;-66
2022/03/20 09:39:32;;;;;;;42.20;21.70;;;16.10;79.00;;;;;;5032937;28;20445;-66
2022/03/20 09:42:00;;;;;;;42.67;20.57;;;16.50;78.00;;;;;;5030828;28;20465;-64
2022/03/20 09:44:27;;;;;;;40.60;21.00;;;17.10;76.70;;;;;;5034369;28;20467;-65
2022/03/20 09:46:55;;;;;;;45.00;20.27;;;17.70;76.90;;;;;;5029255;28;20443;-65
2022/03/20 09:49:25;;;;;;;40.37;20.80;;;17.90;76.30;;;;;;5032973;28;20449;-65
2022/03/20 09:51:52;;;;;;;39.87;19.97;;;18.10;75.50;;;;;;5032237;28;20456;-66
2022/03/20 09:54:19;;;;;;;36.93;20.73;;;18.50;75.80;;;;;;5031527;28;20538;-66
2022/03/20 09:56:50;;;;;;;40.47;21.13;;;18.30;71.60;;;;;;5032024;28;20530;-65
2022/03/20 09:59:17;;;;;;;39.87;22.27;;;18.40;72.70;;;;;;5032285;28;20496;-67
2022/03/20 10:01:44;;;;;;;40.27;21.20;;;18.10;72.40;;;;;;5032900;28;20448;-65
2022/03/20 10:04:14;;;;;;;37.50;19.93;;;18.50;73.30;;;;;;5031775;28;20476;-64
2022/03/20 10:06:43;;;;;;;40.40;22.03;;;18.10;73.50;;;;;;5040417;28;20519;-65
2022/03/20 10:09:11;;;;;;;42.03;21.20;;;17.90;74.20;;;;;;5032717;28;20445;-66
2022/03/20 10:11:41;;;;;;;39.90;21.47;;;17.10;73.90;;;;;;5028654;28;20512;-66
2022/03/20 10:14:15;;;;;;;44.97;21.40;;;16.50;75.50;;;;;;5027407;28;20468;-66
2022/03/20 10:16:43;;;;;;;45.20;21.30;;;16.00;76.00;;;;;;5033667;28;20540;-66
2022/03/20 10:19:34;;;;;;;43.80;21.00;;;15.30;77.60;;;;;;5027803;28;20461;-67
2022/03/20 10:22:06;;;;;;;45.80;20.80;;;15.20;78.80;;;;;;5030885;28;20869;-66
2022/03/20 10:24:34;;;;;;;40.60;20.30;;;15.00;79.90;;;;;;5025753;28;20488;-68
2022/03/20 10:27:08;;;;;;;45.47;20.80;;;14.90;79.40;;;;;;5017386;28;20456;-64
2022/03/20 10:29:36;;;;;;;44.03;19.80;;;14.80;79.60;;;;;;5020171;28;20448;-65
2022/03/20 10:32:08;;;;;;;38.87;18.93;;;14.60;80.10;;;;;;5027629;28;20461;-66
2022/03/20 10:34:49;;;;;;;44.40;20.60;;;14.80;82.20;;;;;;5022078;28;20508;-67
2022/03/20 10:37:16;;;;;;;48.10;21.67;;;14.80;80.30;;;;;;5016745;28;20543;-66
2022/03/20 10:39:43;;;;;;;44.43;20.00;;;14.70;81.20;;;;;;5030213;28;20460;-67
2022/03/20 10:42:12;;;;;;;43.60;19.63;;;14.80;83.60;;;;;;5034429;28;20971;-67
2022/03/20 10:44:39;;;;;;;36.63;18.33;;;14.80;83.10;;;;;;5027284;28;21031;-67
2022/03/20 10:47:10;;;;;;;39.30;18.63;;;14.90;83.80;;;;;;5031645;28;20450;-67
2022/03/20 10:49:38;;;;;;;40.00;19.27;;;14.70;82.80;;;;;;5031736;28;20451;-67
2022/03/20 10:52:08;;;;;;;43.80;19.67;;;14.50;83.20;;;;;;5032178;28;20498;-67
2022/03/20 10:54:43;;;;;;;41.87;18.27;;;14.70;82.90;;;;;;5032730;28;20464;-67
2022/03/20 10:57:11;;;;;;;37.67;17.93;;;14.50;83.60;;;;;;5031475;28;20484;-66
2022/03/20 10:59:39;;;;;;;31.83;14.40;;;14.60;85.20;;;;;;5047697;28;20502;-64
2022/03/20 11:02:08;;;;;;;33.43;15.13;;;14.70;87.20;;;;;;5046920;28;20927;-64
2022/03/20 11:04:36;;;;;;;33.37;14.93;;;14.60;86.70;;;;;;5031373;28;20980;-66
2022/03/20 11:07:07;;;;;;;29.50;14.03;;;14.70;87.40;;;;;;5030906;28;20449;-67
2022/03/20 11:09:35;;;;;;;32.67;13.87;;;15.00;87.20;;;;;;5031181;28;20452;-66
2022/03/20 11:12:08;;;;;;;33.57;14.80;;;15.10;86.20;;;;;;5030950;28;20468;-65
2022/03/20 11:14:38;;;;;;;41.10;15.30;;;15.10;86.40;;;;;;5030560;28;20477;-66
2022/03/20 11:17:06;;;;;;;31.83;14.60;;;15.00;88.70;;;;;;5029957;28;20591;-65
2022/03/20 11:19:35;;;;;;;36.27;13.70;;;15.10;86.40;;;;;;5029175;28;20472;-65
2022/03/20 11:22:05;;;;;;;30.70;13.17;;;15.00;87.00;;;;;;5036505;28;20539;-67
2022/03/20 11:24:33;;;;;;;30.77;13.80;;;14.40;87.60;;;;;;5028214;28;21027;-64
2022/03/20 11:27:03;;;;;;;31.30;13.10;;;14.20;88.40;;;;;;5011242;28;20442;-67
2022/03/20 11:29:32;;;;;;;28.10;13.03;;;14.20;88.60;;;;;;5010929;28;20445;-64
2022/03/20 11:32:00;;;;;;;32.73;13.73;;;14.30;88.50;;;;;;5026174;28;20440;-66
2022/03/20 11:34:28;;;;;;;28.70;12.97;;;14.40;88.30;;;;;;5031521;28;20472;-66
2022/03/20 11:37:06;;;;;;;31.40;13.80;;;14.40;88.90;;;;;;5030314;28;21042;-64
2022/03/20 11:39:33;;;;;;;27.50;13.07;;;14.50;85.70;;;;;;5030808;28;20963;-65
2022/03/20 11:42:25;;;;;;;34.37;13.90;;;14.60;87.70;;;;;;5025171;28;20466;-63
2022/03/20 11:44:53;;;;;;;31.20;14.27;;;14.60;88.30;;;;;;5022890;28;20470;-65
2022/03/20 11:47:27;;;;;;;31.07;14.20;;;14.50;87.90;;;;;;5026744;28;20463;-64
2022/03/20 11:50:15;;;;;;;36.90;14.50;;;14.60;86.90;;;;;;5022689;28;20910;-64
2022/03/20 11:53:00;;;;;;;31.13;13.93;;;14.60;84.00;;;;;;5025467;28;20479;-64
2022/03/20 11:55:36;;;;;;;32.07;14.47;;;14.60;84.00;;;;;;5029304;28;20470;-63
2022/03/20 11:58:09;;;;;;;31.03;14.33;;;14.70;83.40;;;;;;5029664;28;21034;-63
2022/03/20 12:00:39;;;;;;;32.33;14.10;;;14.70;82.80;;;;;;5030472;28;20471;-64
2022/03/20 12:03:32;;;;;;;35.07;13.67;;;14.70;83.50;;;;;;5030260;28;20839;-64
2022/03/20 12:06:33;;;;;;;28.37;12.70;;;14.70;84.10;;;;;;5024551;28;20841;-67
2022/03/20 12:09:09;;;;;;;31.50;12.93;;;14.60;84.70;;;;;;5028591;28;20507;-65
2022/03/20 12:11:50;;;;;;;27.67;12.40;;;14.60;83.80;;;;;;5029740;28;20473;-64
2022/03/20 12:14:29;;;;;;;26.17;12.53;;;14.50;85.50;;;;;;5030222;28;20472;-63
2022/03/20 12:16:58;;;;;;;30.80;12.67;;;14.60;83.80;;;;;;5029029;28;20485;-66
2022/03/20 12:19:37;;;;;;;24.23;12.03;;;14.60;84.80;;;;;;5033281;28;20475;-63
2022/03/20 12:22:06;;;;;;;26.30;11.50;;;14.70;81.30;;;;;;5033405;28;20452;-66
2022/03/20 12:24:46;;;;;;;24.93;11.70;;;14.90;81.60;;;;;;5026701;28;20476;-69
2022/03/20 12:27:41;;;;;;;28.30;12.43;;;14.80;82.00;;;;;;5015787;28;20467;-65
2022/03/20 12:30:33;;;;;;;28.40;12.93;;;14.90;82.00;;;;;;5026161;28;20448;-65
2022/03/20 12:33:02;;;;;;;35.27;15.40;;;14.70;83.20;;;;;;5023549;28;20560;-62
2022/03/20 12:35:39;;;;;;;36.70;15.73;;;14.80;81.30;;;;;;5022492;28;20460;-65
2022/03/20 12:38:05;;;;;;;34.90;15.70;;;14.90;82.10;;;;;;5013334;28;20492;-62
2022/03/20 12:40:35;;;;;;;35.53;16.50;;;15.10;80.60;;;;;;5011528;28;20456;-60
2022/03/20 12:43:05;;;;;;;33.63;14.90;;;15.00;80.70;;;;;;5026985;28;20473;-63
2022/03/20 12:45:34;;;;;;;29.70;14.20;;;15.00;81.30;;;;;;5016997;28;20476;-62
2022/03/20 12:48:04;;;;;;;30.77;14.63;;;15.00;80.20;;;;;;5024487;28;20447;-64
2022/03/20 12:50:34;;;;;;;35.00;14.10;;;15.10;79.20;;;;;;5035075;28;20500;-63
2022/03/20 12:53:06;;;;;;;34.80;14.07;;;14.90;79.80;;;;;;5037679;28;20885;-63
2022/03/20 12:55:34;;;;;;;32.33;14.40;;;15.00;79.40;;;;;;5028971;28;20441;-63
2022/03/20 12:58:01;;;;;;;30.50;14.57;;;15.10;79.40;;;;;;5029024;28;20483;-62
2022/03/20 13:00:30;;;;;;;31.60;14.07;;;15.00;79.60;;;;;;5030291;28;20456;-67
2022/03/20 13:03:04;;;;;;;29.03;14.00;;;15.10;78.50;;;;;;5032048;28;20456;-63
2022/03/20 13:05:33;;;;;;;30.90;13.70;;;15.10;77.60;;;;;;5031899;28;20458;-62
2022/03/20 13:08:01;;;;;;;30.60;13.10;;;15.00;78.10;;;;;;5033075;28;20448;-63
2022/03/20 13:10:34;;;;;;;30.10;12.37;;;14.90;78.30;;;;;;5032420;28;21248;-64
2022/03/20 13:13:02;;;;;;;31.20;13.27;;;15.10;78.00;;;;;;5033388;28;20471;-64
2022/03/20 13:15:30;;;;;;;31.10;12.83;;;15.20;77.30;;;;;;5032072;28;20606;-66
2022/03/20 13:17:59;;;;;;;29.90;13.50;;;15.10;75.80;;;;;;5032416;28;20490;-66
2022/03/20 13:20:29;;;;;;;31.63;12.83;;;14.90;77.90;;;;;;5032571;28;20456;-63
2022/03/20 13:22:57;;;;;;;28.13;12.20;;;15.00;78.00;;;;;;5043586;28;20482;-64